sensor_id;sensor_type;location;lat;lon;timestamp;pressure;altitude;pressure_sealevel;temperature;humidity
70217;BME280;65567;55.684;37.570;2023-03-04T00:00:40;97485.41;;;2.96;54.55
70217;BME280;65567;55.684;37.570;2023-03-04T00:03:10;97478.44;;;2.98;54.17
70217;BME280;65567;55.684;37.570;2023-03-04T00:05:36;97477.38;;;3.03;54.25
70217;BME280;65567;55.684;37.570;2023-03-04T00:08:02;97468.50;;;3.08;54.14
70217;BME280;65567;55.684;37.570;2023-03-04T00:10:28;97474.94;;;3.00;54.31
70217;BME280;65567;55.684;37.570;2023-03-04T00:12:54;97478.44;;;2.98;54.37
70217;BME280;65567;55.684;37.570;2023-03-04T00:15:20;97462.53;;;3.06;54.10
70217;BME280;65567;55.684;37.570;2023-03-04T00:17:46;97465.59;;;2.97;54.20
70217;BME280;65567;55.684;37.570;2023-03-04T00:20:12;97459.50;;;3.16;53.82
70217;BME280;65567;55.684;37.570;2023-03-04T00:22:38;97457.00;;;3.14;53.88
70217;BME280;65567;55.684;37.570;2023-03-04T00:25:04;97448.19;;;3.01;53.90
70217;BME280;65567;55.684;37.570;2023-03-04T00:27:30;97446.91;;;2.73;54.81
70217;BME280;65567;55.684;37.570;2023-03-04T00:29:56;97445.13;;;2.56;55.46
70217;BME280;65567;55.684;37.570;2023-03-04T00:32:22;97443.16;;;2.61;55.28
70217;BME280;65567;55.684;37.570;2023-03-04T00:34:48;97439.13;;;2.55;55.84
70217;BME280;65567;55.684;37.570;2023-03-04T00:37:14;97438.63;;;2.66;55.69
70217;BME280;65567;55.684;37.570;2023-03-04T00:39:40;97444.81;;;2.81;55.19
70217;BME280;65567;55.684;37.570;2023-03-04T00:42:06;97440.19;;;2.88;55.10
70217;BME280;65567;55.684;37.570;2023-03-04T00:44:33;97437.50;;;2.89;55.04
70217;BME280;65567;55.684;37.570;2023-03-04T00:46:59;97424.59;;;2.89;54.97
70217;BME280;65567;55.684;37.570;2023-03-04T00:49:25;97419.84;;;2.97;54.43
70217;BME280;65567;55.684;37.570;2023-03-04T00:51:51;97429.47;;;2.95;54.66
70217;BME280;65567;55.684;37.570;2023-03-04T00:54:16;97431.50;;;2.89;54.89
70217;BME280;65567;55.684;37.570;2023-03-04T00:56:42;97429.47;;;2.95;54.79
70217;BME280;65567;55.684;37.570;2023-03-04T00:59:08;97428.53;;;2.79;55.21
70217;BME280;65567;55.684;37.570;2023-03-04T01:01:34;97433.38;;;2.68;55.37
70217;BME280;65567;55.684;37.570;2023-03-04T01:04:00;97426.50;;;2.49;55.83
70217;BME280;65567;55.684;37.570;2023-03-04T01:06:26;97421.69;;;2.41;56.22
70217;BME280;65567;55.684;37.570;2023-03-04T01:08:51;97421.53;;;2.44;56.06
70217;BME280;65567;55.684;37.570;2023-03-04T01:11:18;97421.31;;;2.49;56.10
70217;BME280;65567;55.684;37.570;2023-03-04T01:13:44;97423.25;;;2.26;56.35
70217;BME280;65567;55.684;37.570;2023-03-04T01:16:09;97424.97;;;2.07;57.55
70217;BME280;65567;55.684;37.570;2023-03-04T01:18:37;97425.34;;;2.18;57.05
70217;BME280;65567;55.684;37.570;2023-03-04T01:21:04;97429.66;;;2.18;57.00
70217;BME280;65567;55.684;37.570;2023-03-04T01:23:30;97420.88;;;2.03;57.84
70217;BME280;65567;55.684;37.570;2023-03-04T01:25:56;97415.03;;;1.99;57.36
70217;BME280;65567;55.684;37.570;2023-03-04T01:28:22;97420.66;;;1.88;58.10
70217;BME280;65567;55.684;37.570;2023-03-04T01:30:48;97422.69;;;2.01;57.84
70217;BME280;65567;55.684;37.570;2023-03-04T01:33:14;97415.84;;;2.00;57.79
70217;BME280;65567;55.684;37.570;2023-03-04T01:35:39;97412.63;;;1.94;57.92
70217;BME280;65567;55.684;37.570;2023-03-04T01:38:05;97408.88;;;2.02;57.81
70217;BME280;65567;55.684;37.570;2023-03-04T01:40:32;97406.22;;;2.03;57.78
70217;BME280;65567;55.684;37.570;2023-03-04T01:42:58;97411.22;;;1.87;58.22
70217;BME280;65567;55.684;37.570;2023-03-04T01:45:24;97403.13;;;1.95;57.87
70217;BME280;65567;55.684;37.570;2023-03-04T01:47:50;97405.53;;;2.00;57.37
70217;BME280;65567;55.684;37.570;2023-03-04T01:50:29;97408.88;;;2.02;57.72
70217;BME280;65567;55.684;37.570;2023-03-04T01:52:56;97399.88;;;1.91;57.66
70217;BME280;65567;55.684;37.570;2023-03-04T01:55:23;97394.47;;;1.77;58.40
70217;BME280;65567;55.684;37.570;2023-03-04T01:57:51;97393.03;;;1.90;58.07
70217;BME280;65567;55.684;37.570;2023-03-04T02:03:08;97383.97;;;2.01;57.87
70217;BME280;65567;55.684;37.570;2023-03-04T02:05:37;97373.63;;;2.01;57.74
70217;BME280;65567;55.684;37.570;2023-03-04T02:08:04;97379.84;;;1.96;57.78
70217;BME280;65567;55.684;37.570;2023-03-04T02:10:31;97371.59;;;1.88;58.21
70217;BME280;65567;55.684;37.570;2023-03-04T02:12:59;97370.00;;;2.05;58.00
70217;BME280;65567;55.684;37.570;2023-03-04T02:15:25;97365.59;;;2.07;57.61
70217;BME280;65567;55.684;37.570;2023-03-04T02:17:52;97369.22;;;2.03;57.46
70217;BME280;65567;55.684;37.570;2023-03-04T02:28:38;97333.19;;;2.19;57.14
70217;BME280;65567;55.684;37.570;2023-03-04T02:31:05;97346.66;;;2.43;56.47
70217;BME280;65567;55.684;37.570;2023-03-04T02:33:31;97338.31;;;2.38;56.29
70217;BME280;65567;55.684;37.570;2023-03-04T02:35:58;97332.84;;;2.44;56.29
70217;BME280;65567;55.684;37.570;2023-03-04T02:38:24;97330.56;;;2.38;56.37
70217;BME280;65567;55.684;37.570;2023-03-04T02:40:52;97329.81;;;2.36;56.68
70217;BME280;65567;55.684;37.570;2023-03-04T02:43:19;97324.28;;;2.43;56.23
70217;BME280;65567;55.684;37.570;2023-03-04T02:45:49;97308.81;;;2.42;56.19
70217;BME280;65567;55.684;37.570;2023-03-04T02:48:17;97311.63;;;2.37;56.55
70217;BME280;65567;55.684;37.570;2023-03-04T02:50:47;97310.66;;;2.40;56.05
70217;BME280;65567;55.684;37.570;2023-03-04T02:53:13;97318.94;;;2.29;56.52
70217;BME280;65567;55.684;37.570;2023-03-04T02:55:40;97303.03;;;2.19;56.90
70217;BME280;65567;55.684;37.570;2023-03-04T02:58:08;97300.91;;;2.27;56.77
70217;BME280;65567;55.684;37.570;2023-03-04T03:00:35;97303.66;;;2.42;56.16
70217;BME280;65567;55.684;37.570;2023-03-04T03:03:01;97310.88;;;2.35;56.50
70217;BME280;65567;55.684;37.570;2023-03-04T03:05:29;97304.25;;;2.29;56.50
70217;BME280;65567;55.684;37.570;2023-03-04T03:07:55;97301.06;;;2.24;56.87
70217;BME280;65567;55.684;37.570;2023-03-04T03:10:22;97299.81;;;2.14;57.11
70217;BME280;65567;55.684;37.570;2023-03-04T03:12:47;97290.69;;;2.07;57.30
70217;BME280;65567;55.684;37.570;2023-03-04T03:15:14;97300.91;;;2.27;56.79
70217;BME280;65567;55.684;37.570;2023-03-04T03:17:40;97298.69;;;2.20;57.03
70217;BME280;65567;55.684;37.570;2023-03-04T03:20:07;97291.44;;;2.28;56.66
70217;BME280;65567;55.684;37.570;2023-03-04T03:22:34;97298.19;;;2.30;56.34
70217;BME280;65567;55.684;37.570;2023-03-04T03:25:00;97298.59;;;2.04;57.43
70217;BME280;65567;55.684;37.570;2023-03-04T03:27:25;97286.31;;;2.09;57.06
70217;BME280;65567;55.684;37.570;2023-03-04T03:29:51;97292.97;;;1.95;57.69
70217;BME280;65567;55.684;37.570;2023-03-04T03:32:17;97276.63;;;1.95;58.07
70217;BME280;65567;55.684;37.570;2023-03-04T03:34:43;97276.22;;;2.04;57.62
70217;BME280;65567;55.684;37.570;2023-03-04T03:37:09;97270.66;;;2.12;57.40
70217;BME280;65567;55.684;37.570;2023-03-04T03:39:35;97270.34;;;2.01;57.94
70217;BME280;65567;55.684;37.570;2023-03-04T03:42:01;97266.63;;;2.06;57.57
70217;BME280;65567;55.684;37.570;2023-03-04T03:44:27;97273.63;;;2.04;57.59
70217;BME280;65567;55.684;37.570;2023-03-04T03:46:53;97274.16;;;2.11;57.28
70217;BME280;65567;55.684;37.570;2023-03-04T03:49:19;97271.94;;;2.03;57.20
70217;BME280;65567;55.684;37.570;2023-03-04T03:51:45;97277.66;;;1.73;58.48
70217;BME280;65567;55.684;37.570;2023-03-04T03:54:10;97276.59;;;1.58;59.25
70217;BME280;65567;55.684;37.570;2023-03-04T03:56:36;97266.69;;;1.68;58.85
70217;BME280;65567;55.684;37.570;2023-03-04T03:59:02;97263.31;;;1.85;58.42
70217;BME280;65567;55.684;37.570;2023-03-04T04:01:28;97252.97;;;2.04;57.71
70217;BME280;65567;55.684;37.570;2023-03-04T04:03:54;97246.13;;;2.21;57.00
70217;BME280;65567;55.684;37.570;2023-03-04T04:06:19;97236.94;;;2.33;56.63
70217;BME280;65567;55.684;37.570;2023-03-04T04:08:45;97236.16;;;2.13;56.82
70217;BME280;65567;55.684;37.570;2023-03-04T04:11:12;97228.72;;;2.07;57.27
70217;BME280;65567;55.684;37.570;2023-03-04T04:13:38;97235.38;;;1.93;57.78
70217;BME280;65567;55.684;37.570;2023-03-04T04:16:05;97223.88;;;2.01;57.56
70217;BME280;65567;55.684;37.570;2023-03-04T04:18:31;97216.25;;;1.97;57.76
70217;BME280;65567;55.684;37.570;2023-03-04T04:20:56;97217.84;;;2.00;58.21
70217;BME280;65567;55.684;37.570;2023-03-04T04:23:22;97214.38;;;2.01;58.04
70217;BME280;65567;55.684;37.570;2023-03-04T04:25:48;97204.34;;;2.12;57.57
70217;BME280;65567;55.684;37.570;2023-03-04T04:28:14;97203.50;;;2.12;57.47
70217;BME280;65567;55.684;37.570;2023-03-04T04:30:40;97206.38;;;1.71;58.53
70217;BME280;65567;55.684;37.570;2023-03-04T04:33:08;97208.41;;;1.64;59.32
70217;BME280;65567;55.684;37.570;2023-03-04T04:35:34;97203.84;;;1.69;59.35
70217;BME280;65567;55.684;37.570;2023-03-04T04:38:03;97201.31;;;1.68;59.22
70217;BME280;65567;55.684;37.570;2023-03-04T04:40:29;97208.59;;;1.96;58.59
70217;BME280;65567;55.684;37.570;2023-03-04T04:42:55;97199.53;;;1.87;58.89
70217;BME280;65567;55.684;37.570;2023-03-04T04:45:22;97211.03;;;1.99;58.40
70217;BME280;65567;55.684;37.570;2023-03-04T04:47:50;97205.47;;;1.89;58.25
70217;BME280;65567;55.684;37.570;2023-03-04T04:50:16;97201.94;;;1.73;59.15
70217;BME280;65567;55.684;37.570;2023-03-04T04:52:42;97207.25;;;1.70;59.49
70217;BME280;65567;55.684;37.570;2023-03-04T04:55:08;97212.16;;;1.93;58.96
70217;BME280;65567;55.684;37.570;2023-03-04T04:57:34;97204.72;;;2.05;58.52
70217;BME280;65567;55.684;37.570;2023-03-04T05:00:00;97201.00;;;2.10;58.33
70217;BME280;65567;55.684;37.570;2023-03-04T05:02:26;97206.38;;;2.23;57.86
70217;BME280;65567;55.684;37.570;2023-03-04T05:04:52;97201.47;;;2.19;57.92
70217;BME280;65567;55.684;37.570;2023-03-04T05:07:18;97195.16;;;2.24;57.74
70217;BME280;65567;55.684;37.570;2023-03-04T05:09:44;97193.31;;;2.09;58.29
70217;BME280;65567;55.684;37.570;2023-03-04T05:12:10;97192.19;;;2.32;57.92
70217;BME280;65567;55.684;37.570;2023-03-04T05:14:36;97188.44;;;2.38;57.70
70217;BME280;65567;55.684;37.570;2023-03-04T05:17:02;97187.84;;;2.50;57.34
70217;BME280;65567;55.684;37.570;2023-03-04T05:19:28;97195.13;;;2.59;56.79
70217;BME280;65567;55.684;37.570;2023-03-04T05:21:54;97186.25;;;2.81;56.25
70217;BME280;65567;55.684;37.570;2023-03-04T05:24:20;97184.56;;;2.80;55.98
70217;BME280;65567;55.684;37.570;2023-03-04T05:26:46;97183.81;;;2.94;55.78
70217;BME280;65567;55.684;37.570;2023-03-04T05:29:12;97181.59;;;3.04;55.29
70217;BME280;65567;55.684;37.570;2023-03-04T05:31:38;97176.44;;;3.04;55.33
70217;BME280;65567;55.684;37.570;2023-03-04T05:34:03;97171.44;;;3.17;54.77
70217;BME280;65567;55.684;37.570;2023-03-04T05:36:29;97177.28;;;3.20;54.96
70217;BME280;65567;55.684;37.570;2023-03-04T05:38:55;97175.34;;;3.24;54.78
70217;BME280;65567;55.684;37.570;2023-03-04T05:41:21;97181.63;;;3.36;54.46
70217;BME280;65567;55.684;37.570;2023-03-04T05:43:48;97174.72;;;3.67;53.92
70217;BME280;65567;55.684;37.570;2023-03-04T05:46:16;97170.38;;;3.83;53.52
70217;BME280;65567;55.684;37.570;2023-03-04T05:48:43;97161.19;;;3.77;53.24
70217;BME280;65567;55.684;37.570;2023-03-04T05:51:09;97163.75;;;3.93;52.93
70217;BME280;65567;55.684;37.570;2023-03-04T05:53:35;97164.38;;;3.83;53.16
70217;BME280;65567;55.684;37.570;2023-03-04T05:56:28;97154.28;;;3.92;52.68
70217;BME280;65567;55.684;37.570;2023-03-04T05:58:58;97154.63;;;4.17;52.39
70217;BME280;65567;55.684;37.570;2023-03-04T06:01:24;97156.16;;;4.50;52.28
70217;BME280;65567;55.684;37.570;2023-03-04T06:03:50;97154.13;;;4.84;51.49
70217;BME280;65567;55.684;37.570;2023-03-04T06:06:17;97155.44;;;4.76;51.28
70217;BME280;65567;55.684;37.570;2023-03-04T06:08:42;97153.09;;;4.72;51.24
70217;BME280;65567;55.684;37.570;2023-03-04T06:11:08;97146.81;;;4.90;51.04
70217;BME280;65567;55.684;37.570;2023-03-04T06:13:34;97142.34;;;4.92;50.70
70217;BME280;65567;55.684;37.570;2023-03-04T06:16:00;97149.97;;;4.95;50.41
70217;BME280;65567;55.684;37.570;2023-03-04T06:18:26;97139.75;;;4.92;50.49
70217;BME280;65567;55.684;37.570;2023-03-04T06:20:57;97150.50;;;4.86;50.52
70217;BME280;65567;55.684;37.570;2023-03-04T06:23:24;97138.84;;;4.65;51.13
70217;BME280;65567;55.684;37.570;2023-03-04T06:25:51;97136.88;;;4.54;51.05
70217;BME280;65567;55.684;37.570;2023-03-04T06:28:18;97136.72;;;4.71;50.88
70217;BME280;65567;55.684;37.570;2023-03-04T06:30:44;97137.28;;;4.62;50.29
70217;BME280;65567;55.684;37.570;2023-03-04T06:33:10;97136.44;;;4.47;50.66
70217;BME280;65567;55.684;37.570;2023-03-04T06:35:36;97125.59;;;4.55;50.85
70217;BME280;65567;55.684;37.570;2023-03-04T06:38:01;97128.28;;;4.53;50.80
70217;BME280;65567;55.684;37.570;2023-03-04T06:40:27;97127.06;;;4.59;50.85
70217;BME280;65567;55.684;37.570;2023-03-04T06:42:53;97115.69;;;4.76;50.72
70217;BME280;65567;55.684;37.570;2023-03-04T06:45:19;97121.63;;;4.78;50.69
70217;BME280;65567;55.684;37.570;2023-03-04T06:47:45;97112.53;;;4.85;50.56
70217;BME280;65567;55.684;37.570;2023-03-04T06:50:12;97115.69;;;4.90;50.44
70217;BME280;65567;55.684;37.570;2023-03-04T06:52:38;97104.72;;;5.00;49.83
70217;BME280;65567;55.684;37.570;2023-03-04T06:55:05;97107.19;;;5.16;49.64
70217;BME280;65567;55.684;37.570;2023-03-04T06:57:31;97089.56;;;5.21;49.57
70217;BME280;65567;55.684;37.570;2023-03-04T06:59:57;97096.56;;;5.33;49.10
70217;BME280;65567;55.684;37.570;2023-03-04T07:02:23;97098.22;;;5.34;49.25
70217;BME280;65567;55.684;37.570;2023-03-04T07:04:49;97103.56;;;5.45;48.80
70217;BME280;65567;55.684;37.570;2023-03-04T07:07:15;97081.44;;;5.40;49.02
70217;BME280;65567;55.684;37.570;2023-03-04T07:14:40;97073.16;;;6.01;48.28
70217;BME280;65567;55.684;37.570;2023-03-04T07:17:06;97074.41;;;6.08;48.07
70217;BME280;65567;55.684;37.570;2023-03-04T07:19:32;97064.25;;;6.05;47.92
70217;BME280;65567;55.684;37.570;2023-03-04T07:21:58;97064.28;;;5.90;48.10
70217;BME280;65567;55.684;37.570;2023-03-04T07:24:24;97065.91;;;5.66;48.07
70217;BME280;65567;55.684;37.570;2023-03-04T07:26:50;97055.25;;;5.43;48.53
70217;BME280;65567;55.684;37.570;2023-03-04T07:29:16;97061.28;;;5.43;48.93
70217;BME280;65567;55.684;37.570;2023-03-04T07:31:42;97058.41;;;5.48;48.96
70217;BME280;65567;55.684;37.570;2023-03-04T07:34:12;97054.03;;;5.49;49.35
70217;BME280;65567;55.684;37.570;2023-03-04T07:36:38;97055.19;;;5.57;49.46
70217;BME280;65567;55.684;37.570;2023-03-04T07:39:05;97054.72;;;5.78;49.00
70217;BME280;65567;55.684;37.570;2023-03-04T07:41:32;97052.84;;;5.93;48.96
70217;BME280;65567;55.684;37.570;2023-03-04T07:44:01;97046.81;;;5.92;49.01
70217;BME280;65567;55.684;37.570;2023-03-04T07:46:28;97039.53;;;5.72;49.28
70217;BME280;65567;55.684;37.570;2023-03-04T07:48:54;97035.69;;;5.65;48.90
70217;BME280;65567;55.684;37.570;2023-03-04T07:51:22;97037.59;;;5.35;49.66
70217;BME280;65567;55.684;37.570;2023-03-04T07:53:50;97032.59;;;5.32;49.84
70217;BME280;65567;55.684;37.570;2023-03-04T07:56:20;97031.56;;;5.35;49.63
70217;BME280;65567;55.684;37.570;2023-03-04T07:58:46;97032.41;;;5.35;49.64
70217;BME280;65567;55.684;37.570;2023-03-04T08:01:16;97030.09;;;5.30;49.92
70217;BME280;65567;55.684;37.570;2023-03-04T08:03:42;97032.56;;;5.19;50.31
70217;BME280;65567;55.684;37.570;2023-03-04T08:06:11;97028.84;;;5.23;50.25
70217;BME280;65567;55.684;37.570;2023-03-04T08:08:39;97021.19;;;5.35;50.01
70217;BME280;65567;55.684;37.570;2023-03-04T08:11:06;97019.72;;;5.43;49.79
70217;BME280;65567;55.684;37.570;2023-03-04T08:13:33;97022.69;;;5.65;49.36
70217;BME280;65567;55.684;37.570;2023-03-04T08:15:59;97019.84;;;5.42;49.66
70217;BME280;65567;55.684;37.570;2023-03-04T08:18:25;97014.97;;;5.37;49.59
70217;BME280;65567;55.684;37.570;2023-03-04T08:20:51;97005.66;;;5.48;49.87
70217;BME280;65567;55.684;37.570;2023-03-04T08:23:17;97006.25;;;5.51;49.53
70217;BME280;65567;55.684;37.570;2023-03-04T08:25:45;97008.75;;;5.66;49.18
70217;BME280;65567;55.684;37.570;2023-03-04T08:28:12;97001.81;;;5.66;49.84
70217;BME280;65567;55.684;37.570;2023-03-04T08:30:39;97004.00;;;5.59;49.59
70217;BME280;65567;55.684;37.570;2023-03-04T08:33:05;96998.50;;;5.77;49.55
70217;BME280;65567;55.684;37.570;2023-03-04T08:35:32;96993.81;;;5.82;49.19
70217;BME280;65567;55.684;37.570;2023-03-04T08:38:00;96998.59;;;5.88;49.02
70217;BME280;65567;55.684;37.570;2023-03-04T08:40:26;97003.16;;;5.98;48.83
70217;BME280;65567;55.684;37.570;2023-03-04T08:42:52;96997.16;;;5.84;49.01
70217;BME280;65567;55.684;37.570;2023-03-04T08:45:18;96994.63;;;5.95;48.75
70217;BME280;65567;55.684;37.570;2023-03-04T08:47:44;96986.03;;;5.82;49.04
70217;BME280;65567;55.684;37.570;2023-03-04T08:50:10;96985.91;;;5.71;48.99
70217;BME280;65567;55.684;37.570;2023-03-04T08:52:36;96969.09;;;5.63;49.25
70217;BME280;65567;55.684;37.570;2023-03-04T08:55:02;96975.00;;;5.40;49.57
70217;BME280;65567;55.684;37.570;2023-03-04T08:57:28;96968.09;;;5.26;50.07
70217;BME280;65567;55.684;37.570;2023-03-04T08:59:54;96971.16;;;5.58;49.33
70217;BME280;65567;55.684;37.570;2023-03-04T09:02:20;96959.53;;;5.64;49.18
70217;BME280;65567;55.684;37.570;2023-03-04T09:04:46;96956.63;;;5.56;49.54
70217;BME280;65567;55.684;37.570;2023-03-04T09:07:12;96963.28;;;5.73;49.28
70217;BME280;65567;55.684;37.570;2023-03-04T09:09:39;96943.31;;;6.12;48.93
70217;BME280;65567;55.684;37.570;2023-03-04T09:12:05;96941.59;;;6.37;48.73
70217;BME280;65567;55.684;37.570;2023-03-04T09:14:33;96941.16;;;6.43;48.16
70217;BME280;65567;55.684;37.570;2023-03-04T09:17:02;96944.75;;;6.53;48.01
70217;BME280;65567;55.684;37.570;2023-03-04T09:19:28;96932.25;;;6.58;47.77
70217;BME280;65567;55.684;37.570;2023-03-04T09:21:54;96929.88;;;6.55;47.68
70217;BME280;65567;55.684;37.570;2023-03-04T09:24:21;96923.53;;;6.59;47.66
70217;BME280;65567;55.684;37.570;2023-03-04T09:26:51;96916.47;;;6.73;47.39
70217;BME280;65567;55.684;37.570;2023-03-04T09:29:18;96907.41;;;6.78;47.04
70217;BME280;65567;55.684;37.570;2023-03-04T09:31:44;96904.53;;;6.94;46.96
70217;BME280;65567;55.684;37.570;2023-03-04T09:34:10;96904.91;;;6.53;47.74
70217;BME280;65567;55.684;37.570;2023-03-04T09:36:37;96902.41;;;6.51;47.92
70217;BME280;65567;55.684;37.570;2023-03-04T09:39:03;96891.63;;;6.44;47.45
70217;BME280;65567;55.684;37.570;2023-03-04T09:41:42;96887.94;;;6.23;47.40
70217;BME280;65567;55.684;37.570;2023-03-04T09:46:47;96873.16;;;5.99;47.89
70217;BME280;65567;55.684;37.570;2023-03-04T09:49:14;96868.66;;;6.14;47.81
70217;BME280;65567;55.684;37.570;2023-03-04T09:57:23;96860.44;;;6.80;46.63
70217;BME280;65567;55.684;37.570;2023-03-04T10:00:11;96852.13;;;7.10;45.41
70217;BME280;65567;55.684;37.570;2023-03-04T10:05:17;96840.69;;;7.24;44.78
70217;BME280;65567;55.684;37.570;2023-03-04T10:07:49;96826.84;;;7.35;44.62
70217;BME280;65567;55.684;37.570;2023-03-04T10:10:32;96828.38;;;7.38;44.20
70217;BME280;65567;55.684;37.570;2023-03-04T10:13:01;96836.16;;;7.04;44.72
70217;BME280;65567;55.684;37.570;2023-03-04T10:15:38;96817.34;;;7.00;44.18
70217;BME280;65567;55.684;37.570;2023-03-04T10:19:00;96821.00;;;6.98;44.30
70217;BME280;65567;55.684;37.570;2023-03-04T10:21:38;96808.31;;;6.82;44.81
70217;BME280;65567;55.684;37.570;2023-03-04T10:24:14;96814.28;;;6.71;44.65
70217;BME280;65567;55.684;37.570;2023-03-04T10:26:47;96805.19;;;6.65;45.13
70217;BME280;65567;55.684;37.570;2023-03-04T10:29:18;96804.25;;;6.66;44.93
70217;BME280;65567;55.684;37.570;2023-03-04T10:31:45;96798.13;;;6.43;45.11
70217;BME280;65567;55.684;37.570;2023-03-04T10:34:13;96791.25;;;6.42;45.78
70217;BME280;65567;55.684;37.570;2023-03-04T10:39:17;96782.63;;;6.77;45.97
70217;BME280;65567;55.684;37.570;2023-03-04T10:41:57;96781.56;;;6.80;46.31
70217;BME280;65567;55.684;37.570;2023-03-04T10:44:23;96782.59;;;6.66;46.99
70217;BME280;65567;55.684;37.570;2023-03-04T10:46:53;96773.97;;;6.65;46.84
70217;BME280;65567;55.684;37.570;2023-03-04T10:49:20;96771.97;;;6.80;47.56
70217;BME280;65567;55.684;37.570;2023-03-04T10:57:00;96761.25;;;6.38;48.85
70217;BME280;65567;55.684;37.570;2023-03-04T11:04:41;96740.72;;;5.98;49.66
70217;BME280;65567;55.684;37.570;2023-03-04T11:07:08;96749.56;;;5.95;50.33
70217;BME280;65567;55.684;37.570;2023-03-04T11:09:35;96741.03;;;5.93;53.60
70217;BME280;65567;55.684;37.570;2023-03-04T11:12:12;96743.16;;;7.17;63.84
70217;BME280;65567;55.684;37.570;2023-03-04T11:14:41;96734.75;;;7.14;57.46
70217;BME280;65567;55.684;37.570;2023-03-04T11:17:25;96728.13;;;6.98;54.98
70217;BME280;65567;55.684;37.570;2023-03-04T11:20:08;96714.53;;;6.94;55.17
70217;BME280;65567;55.684;37.570;2023-03-04T11:22:38;96709.41;;;6.70;54.76
70217;BME280;65567;55.684;37.570;2023-03-04T11:25:07;96709.75;;;6.54;53.74
70217;BME280;65567;55.684;37.570;2023-03-04T11:27:46;96717.44;;;6.20;52.88
70217;BME280;65567;55.684;37.570;2023-03-04T11:30:24;96716.25;;;5.65;56.84
70217;BME280;65567;55.684;37.570;2023-03-04T11:32:54;96706.88;;;5.38;58.89
70217;BME280;65567;55.684;37.570;2023-03-04T11:40:43;96697.56;;;5.22;56.48
70217;BME280;65567;55.684;37.570;2023-03-04T11:45:58;96682.34;;;5.42;57.16
70217;BME280;65567;55.684;37.570;2023-03-04T11:48:48;96682.34;;;5.42;56.46
70217;BME280;65567;55.684;37.570;2023-03-04T12:00:20;96671.34;;;5.01;59.20
70217;BME280;65567;55.684;37.570;2023-03-04T12:08:53;96663.81;;;4.72;62.80
70217;BME280;65567;55.684;37.570;2023-03-04T12:20:01;96640.47;;;4.72;64.62
70217;BME280;65567;55.684;37.570;2023-03-04T12:22:59;96639.66;;;4.46;66.28
70217;BME280;65567;55.684;37.570;2023-03-04T12:31:38;96628.69;;;4.55;64.84
70217;BME280;65567;55.684;37.570;2023-03-04T12:34:31;96622.47;;;4.45;62.44
70217;BME280;65567;55.684;37.570;2023-03-04T12:41:10;96612.31;;;4.03;64.76
70217;BME280;65567;55.684;37.570;2023-03-04T12:57:07;96582.41;;;3.72;65.57
70217;BME280;65567;55.684;37.570;2023-03-04T12:59:50;96582.84;;;3.91;65.29
70217;BME280;65567;55.684;37.570;2023-03-04T13:02:38;96582.44;;;3.97;65.62
70217;BME280;65567;55.684;37.570;2023-03-04T13:05:37;96576.44;;;3.97;64.58
70217;BME280;65567;55.684;37.570;2023-03-04T13:10:38;96570.63;;;3.80;64.31
70217;BME280;65567;55.684;37.570;2023-03-04T13:13:04;96556.34;;;3.75;64.25
70217;BME280;65567;55.684;37.570;2023-03-04T13:15:34;96559.84;;;3.74;64.30
70217;BME280;65567;55.684;37.570;2023-03-04T13:18:30;96548.88;;;3.83;64.39
70217;BME280;65567;55.684;37.570;2023-03-04T13:23:38;96546.38;;;3.82;63.91
70217;BME280;65567;55.684;37.570;2023-03-04T13:26:16;96550.53;;;3.84;64.02
70217;BME280;65567;55.684;37.570;2023-03-04T13:28:43;96543.81;;;3.94;64.03
70217;BME280;65567;55.684;37.570;2023-03-04T13:36:06;96524.94;;;3.92;63.65
70217;BME280;65567;55.684;37.570;2023-03-04T13:41:33;96516.03;;;4.09;63.59
70217;BME280;65567;55.684;37.570;2023-03-04T13:47:19;96523.28;;;3.91;62.96
70217;BME280;65567;55.684;37.570;2023-03-04T13:49:48;96506.22;;;3.76;63.62
70217;BME280;65567;55.684;37.570;2023-03-04T13:52:35;96496.69;;;3.89;63.45
70217;BME280;65567;55.684;37.570;2023-03-04T13:55:35;96493.97;;;3.65;64.78
70217;BME280;65567;55.684;37.570;2023-03-04T13:58:22;96493.34;;;3.61;65.15
70217;BME280;65567;55.684;37.570;2023-03-04T14:00:53;96493.97;;;3.52;65.82
70217;BME280;65567;55.684;37.570;2023-03-04T14:03:28;96476.97;;;3.48;65.31
70217;BME280;65567;55.684;37.570;2023-03-04T14:08:39;96479.38;;;3.51;64.77
70217;BME280;65567;55.684;37.570;2023-03-04T14:11:18;96472.28;;;3.27;66.14
70217;BME280;65567;55.684;37.570;2023-03-04T14:13:47;96481.72;;;3.28;66.40
70217;BME280;65567;55.684;37.570;2023-03-04T14:16:22;96467.88;;;3.29;67.68
70217;BME280;65567;55.684;37.570;2023-03-04T14:18:57;96456.59;;;3.43;67.14
70217;BME280;65567;55.684;37.570;2023-03-04T14:21:23;96459.59;;;3.50;66.56
70217;BME280;65567;55.684;37.570;2023-03-04T14:24:05;96457.94;;;3.49;66.89
70217;BME280;65567;55.684;37.570;2023-03-04T14:26:31;96453.88;;;3.19;66.67
70217;BME280;65567;55.684;37.570;2023-03-04T14:28:58;96460.50;;;3.23;66.36
70217;BME280;65567;55.684;37.570;2023-03-04T14:31:26;96451.72;;;3.39;66.24
70217;BME280;65567;55.684;37.570;2023-03-04T14:33:57;96436.84;;;3.42;66.17
70217;BME280;65567;55.684;37.570;2023-03-04T14:36:32;96440.75;;;3.48;65.12
70217;BME280;65567;55.684;37.570;2023-03-04T14:39:04;96436.00;;;3.55;65.12
70217;BME280;65567;55.684;37.570;2023-03-04T14:41:35;96434.44;;;3.52;64.83
70217;BME280;65567;55.684;37.570;2023-03-04T14:46:39;96429.59;;;3.60;64.35
70217;BME280;65567;55.684;37.570;2023-03-04T14:49:11;96426.88;;;3.75;63.84
70217;BME280;65567;55.684;37.570;2023-03-04T14:51:42;96428.53;;;3.76;63.59
70217;BME280;65567;55.684;37.570;2023-03-04T14:54:28;96420.66;;;3.77;63.85
70217;BME280;65567;55.684;37.570;2023-03-04T14:56:55;96422.00;;;3.83;63.27
70217;BME280;65567;55.684;37.570;2023-03-04T14:59:33;96418.59;;;3.70;63.52
70217;BME280;65567;55.684;37.570;2023-03-04T15:02:23;96419.00;;;3.63;63.99
70217;BME280;65567;55.684;37.570;2023-03-04T15:04:57;96406.38;;;3.59;64.19